Time;durP1;ratioP1;P1;durP2;ratioP2;P2;SDS_P1;SDS_P2;PMS_P1;PMS_P2;Temp;Humidity;BMP_temperature;BMP_pressure;BME280_temperature;BME280_humidity;BME280_pressure;Samples;Min_cycle;Max_cycle;Signal;HPM_P1;HPM_P2
2024/02/21 00:00:41;;;;;;;11.88;4.80;;;4.40;99.90;;;;;;7605961;19;20770;-73
2024/02/21 00:03:14;;;;;;;9.27;4.15;;;4.40;99.90;;;;;;7607382;19;20018;-74
2024/02/21 00:05:46;;;;;;;8.00;3.45;;;4.40;99.90;;;;;;7589136;19;20034;-73
2024/02/21 00:08:19;;;;;;;9.73;3.88;;;4.40;99.90;;;;;;7596946;19;20059;-74
2024/02/21 00:10:51;;;;;;;7.00;3.17;;;4.40;99.90;;;;;;7581102;19;20534;-75
2024/02/21 00:13:24;;;;;;;11.20;3.55;;;4.40;99.90;;;;;;7594441;19;20141;-74
2024/02/21 00:15:57;;;;;;;5.45;2.83;;;4.40;99.90;;;;;;7569572;19;20014;-74
2024/02/21 00:18:29;;;;;;;9.00;3.17;;;4.50;99.90;;;;;;7602007;19;20018;-74
2024/02/21 00:21:02;;;;;;;6.07;2.92;;;4.50;99.90;;;;;;7605656;19;20388;-75
2024/02/21 00:23:35;;;;;;;8.13;2.80;;;4.60;99.90;;;;;;7605266;19;20381;-74
2024/02/21 00:26:07;;;;;;;10.45;3.03;;;4.60;99.90;;;;;;7609381;19;20042;-73
2024/02/21 00:28:40;;;;;;;7.65;2.80;;;4.60;99.90;;;;;;7596021;19;20707;-74
2024/02/21 00:31:12;;;;;;;6.28;2.90;;;4.50;99.90;;;;;;7604498;19;20014;-75
2024/02/21 00:33:45;;;;;;;9.40;3.10;;;4.50;99.90;;;;;;7599748;19;20011;-75
2024/02/21 00:36:17;;;;;;;9.25;2.42;;;4.50;99.90;;;;;;7601986;19;20267;-75
2024/02/21 00:38:49;;;;;;;10.10;2.83;;;4.50;99.90;;;;;;7608723;19;20639;-74
2024/02/21 00:41:22;;;;;;;4.72;2.50;;;4.60;99.90;;;;;;7604462;19;20445;-74
2024/02/21 00:43:54;;;;;;;8.43;3.03;;;4.60;99.90;;;;;;7598539;19;20540;-74
2024/02/21 00:46:27;;;;;;;5.78;3.10;;;4.60;99.90;;;;;;7602667;19;20058;-73
2024/02/21 00:48:59;;;;;;;3.85;2.22;;;4.60;99.90;;;;;;7613347;19;20029;-73
2024/02/21 00:51:31;;;;;;;7.80;2.92;;;4.60;99.90;;;;;;7610570;19;20018;-73
2024/02/21 00:54:04;;;;;;;5.95;2.88;;;4.50;99.90;;;;;;7599281;19;20504;-74
2024/02/21 00:56:36;;;;;;;7.78;2.95;;;4.50;99.90;;;;;;7605433;19;20013;-75
2024/02/21 00:59:08;;;;;;;7.47;2.45;;;4.50;99.90;;;;;;7601643;19;20019;-74
2024/02/21 01:01:43;;;;;;;5.82;2.88;;;4.50;99.90;;;;;;7598420;19;20015;-74
2024/02/21 01:04:16;;;;;;;6.55;2.50;;;4.60;99.90;;;;;;7598660;19;20021;-74
2024/02/21 01:06:48;;;;;;;6.43;3.27;;;4.60;99.90;;;;;;7611185;19;20827;-75
2024/02/21 01:09:21;;;;;;;7.95;3.03;;;4.60;99.90;;;;;;7606881;19;20104;-74
2024/02/21 01:11:53;;;;;;;11.98;3.90;;;4.60;99.90;;;;;;7569332;19;20684;-75
2024/02/21 01:14:26;;;;;;;10.55;3.10;;;4.60;99.90;;;;;;7570094;19;20095;-74
2024/02/21 01:16:58;;;;;;;9.05;3.25;;;4.60;99.90;;;;;;7606737;19;20014;-74
2024/02/21 01:19:31;;;;;;;5.70;2.95;;;4.60;99.90;;;;;;7600552;19;20019;-74
2024/02/21 01:22:03;;;;;;;8.73;2.92;;;4.60;99.90;;;;;;7605527;19;20018;-74
2024/02/21 01:24:35;;;;;;;4.73;2.73;;;4.70;99.90;;;;;;7603349;19;20057;-74
2024/02/21 01:27:08;;;;;;;11.50;3.83;;;4.70;99.90;;;;;;7603026;19;20011;-74
2024/02/21 01:29:40;;;;;;;10.60;3.60;;;4.70;99.90;;;;;;7608834;19;20015;-73
2024/02/21 01:32:12;;;;;;;8.50;2.50;;;4.70;99.90;;;;;;7598451;19;20044;-73
2024/02/21 01:34:44;;;;;;;11.18;3.42;;;4.70;99.90;;;;;;7609008;19;20019;-73
2024/02/21 01:37:17;;;;;;;7.50;3.45;;;4.80;99.90;;;;;;7601311;19;20038;-74
2024/02/21 01:39:50;;;;;;;11.55;4.03;;;4.70;99.90;;;;;;7608648;19;20047;-74
2024/02/21 01:42:23;;;;;;;10.98;3.28;;;4.70;99.90;;;;;;7602685;19;20026;-74
2024/02/21 01:44:55;;;;;;;5.78;2.53;;;4.70;99.90;;;;;;7566616;19;21330;-74
2024/02/21 01:47:27;;;;;;;10.32;3.78;;;4.70;99.90;;;;;;7591802;19;20022;-74
2024/02/21 01:50:01;;;;;;;9.68;3.70;;;4.80;99.90;;;;;;7595257;19;20399;-75
2024/02/21 01:52:35;;;;;;;9.10;2.67;;;4.80;99.90;;;;;;7565055;19;20752;-74
2024/02/21 01:55:11;;;;;;;7.82;2.90;;;4.80;99.90;;;;;;7605690;19;20014;-73
2024/02/21 01:57:45;;;;;;;4.88;2.50;;;4.90;99.90;;;;;;7593637;19;20089;-74
2024/02/21 02:00:19;;;;;;;;;;;4.80;99.90;;;;;;7593101;19;20481;-73
2024/02/21 02:02:52;;;;;;;8.85;2.65;;;4.90;99.90;;;;;;7596224;19;19918;-74
2024/02/21 02:05:24;;;;;;;3.67;2.27;;;4.80;99.90;;;;;;7591251;19;20018;-74
2024/02/21 02:07:57;;;;;;;8.32;3.30;;;4.80;99.90;;;;;;7600297;19;20025;-73
2024/02/21 02:10:30;;;;;;;5.47;2.35;;;4.80;99.90;;;;;;7595959;19;20010;-74
2024/02/21 02:13:02;;;;;;;10.68;2.63;;;4.80;99.90;;;;;;7602014;19;20027;-75
2024/02/21 02:15:53;;;;;;;6.43;3.08;;;4.80;99.90;;;;;;7595629;19;20018;-74
2024/02/21 02:18:26;;;;;;;7.70;2.95;;;4.70;99.90;;;;;;7588177;19;20021;-74
2024/02/21 02:20:59;;;;;;;9.35;3.20;;;4.70;99.90;;;;;;7572190;19;20018;-74
2024/02/21 02:23:33;;;;;;;9.55;2.78;;;4.70;99.90;;;;;;7578142;19;20022;-74
2024/02/21 02:26:07;;;;;;;7.50;2.58;;;4.70;99.90;;;;;;7591368;19;20019;-75
2024/02/21 02:28:40;;;;;;;7.95;2.65;;;4.80;99.90;;;;;;7591563;19;20556;-74
2024/02/21 02:31:12;;;;;;;17.05;3.78;;;4.80;99.90;;;;;;7580874;19;20538;-75
2024/02/21 02:33:45;;;;;;;10.32;4.13;;;4.80;99.90;;;;;;7597414;19;20098;-75
2024/02/21 02:36:18;;;;;;;8.55;2.90;;;4.80;99.90;;;;;;7588831;19;24311;-75
2024/02/21 02:38:50;;;;;;;11.87;3.37;;;4.80;99.90;;;;;;7594089;19;26100;-75
2024/02/21 02:41:22;;;;;;;9.43;3.08;;;4.80;99.90;;;;;;7576334;19;21000;-75
2024/02/21 02:43:54;;;;;;;5.88;2.72;;;4.80;99.90;;;;;;7591262;19;20018;-74
2024/02/21 02:46:27;;;;;;;4.18;1.70;;;4.90;99.90;;;;;;7578667;19;20026;-75
2024/02/21 02:48:59;;;;;;;6.35;2.03;;;4.90;99.90;;;;;;7593573;19;20015;-74
2024/02/21 02:51:32;;;;;;;5.80;2.38;;;4.80;99.90;;;;;;7560913;19;21369;-75
2024/02/21 02:54:04;;;;;;;5.13;2.33;;;4.80;99.90;;;;;;7588852;19;20038;-76
2024/02/21 02:56:36;;;;;;;3.72;1.65;;;4.80;99.90;;;;;;7588105;19;20271;-74
2024/02/21 02:59:09;;;;;;;3.78;1.83;;;4.80;99.90;;;;;;7586009;19;20078;-75
2024/02/21 03:01:41;;;;;;;5.57;1.85;;;4.80;99.90;;;;;;7589349;19;20065;-75
2024/02/21 03:04:14;;;;;;;4.97;2.08;;;4.80;99.90;;;;;;7589905;19;20022;-75
2024/02/21 03:06:46;;;;;;;5.40;1.50;;;4.80;99.90;;;;;;7584269;19;20010;-75
2024/02/21 03:09:18;;;;;;;3.08;1.67;;;4.90;99.90;;;;;;7605346;19;20093;-75
2024/02/21 03:11:50;;;;;;;3.00;1.27;;;4.90;99.90;;;;;;7599846;19;20021;-75
2024/02/21 03:14:23;;;;;;;3.75;1.80;;;4.90;99.90;;;;;;7603112;19;20022;-74
2024/02/21 03:16:55;;;;;;;2.83;1.77;;;4.90;99.90;;;;;;7603260;19;20052;-74
2024/02/21 03:19:28;;;;;;;2.22;1.63;;;4.90;99.90;;;;;;7591702;19;20097;-74
2024/02/21 03:22:01;;;;;;;4.63;1.23;;;4.80;99.90;;;;;;7605178;19;20649;-75
2024/02/21 03:24:33;;;;;;;6.80;2.05;;;4.80;99.90;;;;;;7599252;19;20087;-75
2024/02/21 03:27:06;;;;;;;3.65;1.65;;;4.90;99.90;;;;;;7590245;19;20018;-75
2024/02/21 03:29:38;;;;;;;2.60;1.25;;;4.90;99.90;;;;;;7601139;19;20015;-75
2024/02/21 03:32:10;;;;;;;3.92;1.50;;;4.90;99.90;;;;;;7579468;19;20855;-75
2024/02/21 03:34:43;;;;;;;5.55;1.65;;;5.00;99.90;;;;;;7591095;19;20037;-75
2024/02/21 03:37:15;;;;;;;3.17;1.40;;;5.00;99.90;;;;;;7566063;19;20021;-74
2024/02/21 03:39:48;;;;;;;4.05;1.83;;;4.90;99.90;;;;;;7602278;19;20035;-75
2024/02/21 03:42:20;;;;;;;4.30;1.90;;;4.90;99.90;;;;;;7592810;19;20018;-75
2024/02/21 03:44:53;;;;;;;4.25;1.83;;;5.00;99.90;;;;;;7602142;19;20057;-74
2024/02/21 03:47:25;;;;;;;6.15;2.38;;;5.00;99.90;;;;;;7592137;19;20524;-75
2024/02/21 03:49:59;;;;;;;3.75;1.60;;;4.90;99.90;;;;;;7603334;19;20019;-75
2024/02/21 03:52:32;;;;;;;4.90;2.08;;;4.90;99.90;;;;;;7578226;19;20202;-75
2024/02/21 03:55:04;;;;;;;4.38;1.63;;;4.90;99.90;;;;;;7571241;19;20015;-74
2024/02/21 03:57:38;;;;;;;5.15;1.58;;;4.90;99.90;;;;;;7591107;19;20915;-75
2024/02/21 04:00:11;;;;;;;5.05;1.45;;;4.90;99.90;;;;;;7597382;19;20030;-76
2024/02/21 04:02:43;;;;;;;3.88;1.85;;;4.90;99.90;;;;;;7593706;19;20010;-75
2024/02/21 04:05:16;;;;;;;3.08;1.73;;;4.90;99.90;;;;;;7598225;19;20018;-74
2024/02/21 04:07:51;;;;;;;5.25;2.13;;;4.90;99.90;;;;;;7581553;19;20022;-75
2024/02/21 04:10:23;;;;;;;2.65;1.80;;;4.80;99.90;;;;;;7582060;19;20030;-74
2024/02/21 04:12:55;;;;;;;3.78;1.30;;;4.80;99.90;;;;;;7594154;19;20019;-75
2024/02/21 04:15:27;;;;;;;4.65;1.73;;;4.90;99.90;;;;;;7584808;19;20479;-74
2024/02/21 04:18:00;;;;;;;4.07;1.73;;;4.80;99.90;;;;;;7579382;19;21345;-75
2024/02/21 04:20:32;;;;;;;11.15;1.67;;;4.90;99.90;;;;;;7589819;19;20093;-74
2024/02/21 04:23:04;;;;;;;4.70;1.40;;;4.90;99.90;;;;;;7599606;19;20017;-75
2024/02/21 04:25:37;;;;;;;2.08;1.30;;;4.90;99.90;;;;;;7594955;19;20010;-74
2024/02/21 04:28:09;;;;;;;2.22;1.45;;;4.90;99.90;;;;;;7602204;19;20505;-75
2024/02/21 04:30:41;;;;;;;4.10;1.70;;;4.80;99.90;;;;;;7589696;19;20518;-75
2024/02/21 04:33:13;;;;;;;4.45;1.95;;;4.80;99.90;;;;;;7605110;19;20472;-76
2024/02/21 04:35:46;;;;;;;2.00;1.65;;;4.80;99.90;;;;;;7590786;19;20098;-75
2024/02/21 04:38:18;;;;;;;3.20;2.13;;;4.80;99.90;;;;;;7599720;19;20489;-75
2024/02/21 04:40:50;;;;;;;2.35;1.25;;;4.80;99.90;;;;;;7579792;19;20033;-75
2024/02/21 04:43:22;;;;;;;3.65;1.50;;;4.70;99.90;;;;;;7583705;19;20042;-74
2024/02/21 04:45:55;;;;;;;4.55;1.45;;;4.70;99.90;;;;;;7567050;19;20029;-75
2024/02/21 04:48:27;;;;;;;1.67;1.17;;;4.70;99.90;;;;;;7570607;19;20086;-75
2024/02/21 04:50:59;;;;;;;3.17;1.52;;;4.70;99.90;;;;;;7590246;19;20019;-75
2024/02/21 04:53:32;;;;;;;2.92;1.70;;;4.70;99.90;;;;;;7572088;19;21335;-76
2024/02/21 04:56:04;;;;;;;2.27;1.03;;;4.70;99.90;;;;;;7582300;19;20021;-73
2024/02/21 04:58:40;;;;;;;4.57;1.50;;;4.50;99.90;;;;;;7567456;19;20027;-73
2024/02/21 05:01:12;;;;;;;2.60;1.35;;;4.50;99.90;;;;;;7563119;19;20023;-73
2024/02/21 05:03:45;;;;;;;5.43;1.40;;;4.40;99.90;;;;;;7563336;19;20010;-73
2024/02/21 05:06:17;;;;;;;3.63;1.08;;;4.40;99.90;;;;;;7587294;19;20524;-76
2024/02/21 05:08:50;;;;;;;5.72;1.60;;;4.40;99.90;;;;;;7566786;19;20014;-73
2024/02/21 05:11:22;;;;;;;3.70;1.52;;;4.30;99.90;;;;;;7573621;19;20006;-73
2024/02/21 05:13:55;;;;;;;7.88;2.22;;;4.30;99.90;;;;;;7571030;19;20023;-73
2024/02/21 05:16:27;;;;;;;5.60;2.20;;;4.30;99.90;;;;;;7573078;19;20025;-73
2024/02/21 05:18:59;;;;;;;3.38;1.98;;;4.20;99.90;;;;;;7544681;19;20025;-75
2024/02/21 05:21:32;;;;;;;4.27;1.53;;;4.20;99.90;;;;;;7584643;19;20493;-73
2024/02/21 05:24:05;;;;;;;2.80;1.30;;;4.10;99.90;;;;;;7589676;19;20550;-75
2024/02/21 05:26:37;;;;;;;4.13;1.30;;;4.10;99.90;;;;;;7587580;19;21587;-75
2024/02/21 05:29:10;;;;;;;2.05;1.38;;;4.10;99.90;;;;;;7602395;19;20368;-75
2024/02/21 05:31:51;;;;;;;3.42;1.45;;;4.10;99.90;;;;;;7582489;19;20050;-75
2024/02/21 05:34:23;;;;;;;3.22;1.20;;;4.10;99.90;;;;;;7586190;19;20030;-74
2024/02/21 05:36:57;;;;;;;3.45;1.40;;;3.90;99.90;;;;;;7588069;19;23751;-74
2024/02/21 05:39:29;;;;;;;4.03;1.48;;;4.00;99.90;;;;;;7590564;19;20468;-75
2024/02/21 05:42:02;;;;;;;3.35;2.03;;;3.90;99.90;;;;;;7602070;19;20033;-74
2024/02/21 05:44:34;;;;;;;6.18;1.45;;;3.90;99.90;;;;;;7581949;19;20038;-75
2024/02/21 05:47:09;;;;;;;3.03;1.40;;;3.80;99.90;;;;;;7597429;19;20025;-75
2024/02/21 05:49:43;;;;;;;4.00;1.40;;;3.80;99.90;;;;;;7584655;19;21759;-74
2024/02/21 05:52:15;;;;;;;2.88;1.40;;;3.80;99.90;;;;;;7595519;19;20019;-75
2024/02/21 05:54:50;;;;;;;2.33;1.23;;;3.80;99.90;;;;;;7591981;19;20022;-74
2024/02/21 05:57:22;;;;;;;2.95;1.60;;;3.80;99.90;;;;;;7598710;19;20026;-75
2024/02/21 05:59:54;;;;;;;3.63;1.30;;;3.70;99.90;;;;;;7586330;19;20029;-74
2024/02/21 06:02:27;;;;;;;2.92;1.25;;;3.70;99.90;;;;;;7588840;19;20014;-78
2024/02/21 06:05:00;;;;;;;3.65;1.30;;;3.70;99.90;;;;;;7588601;19;20006;-73
2024/02/21 06:07:32;;;;;;;4.90;1.63;;;3.80;99.90;;;;;;7588682;19;21099;-74
2024/02/21 06:10:06;;;;;;;3.17;1.40;;;3.80;99.90;;;;;;7577521;19;20018;-75
2024/02/21 06:12:38;;;;;;;2.00;1.23;;;3.80;99.90;;;;;;7577235;19;20101;-73
2024/02/21 06:15:11;;;;;;;3.38;1.40;;;3.90;99.90;;;;;;7558014;19;20018;-74
2024/02/21 06:17:43;;;;;;;2.55;1.30;;;3.90;99.90;;;;;;7573937;19;20017;-73
2024/02/21 06:20:18;;;;;;;3.78;1.52;;;3.90;99.90;;;;;;7557788;19;20022;-74
2024/02/21 06:22:51;;;;;;;4.85;1.55;;;3.90;99.90;;;;;;7579914;19;20019;-73
2024/02/21 06:25:23;;;;;;;3.35;1.70;;;3.80;99.90;;;;;;7565053;19;20018;-74
2024/02/21 06:27:56;;;;;;;3.47;1.63;;;3.80;99.90;;;;;;7575848;19;20510;-75
2024/02/21 06:30:28;;;;;;;3.10;1.60;;;3.80;99.90;;;;;;7583788;19;20018;-75
2024/02/21 06:33:02;;;;;;;5.13;1.90;;;3.80;99.90;;;;;;7555581;19;20117;-74
2024/02/21 06:35:35;;;;;;;7.82;2.25;;;3.80;99.90;;;;;;7554904;19;20018;-76
2024/02/21 06:38:07;;;;;;;7.43;2.30;;;3.90;99.90;;;;;;7580561;19;20019;-76
2024/02/21 06:40:40;;;;;;;5.22;2.70;;;4.00;99.90;;;;;;7588545;19;20011;-78
2024/02/21 06:43:12;;;;;;;3.45;2.25;;;4.10;99.90;;;;;;7584013;19;20021;-76
2024/02/21 06:45:50;;;;;;;6.18;2.30;;;4.10;99.90;;;;;;7565180;19;20015;-74
2024/02/21 06:48:23;;;;;;;9.27;2.22;;;4.20;99.90;;;;;;7574950;19;20023;-75
2024/02/21 06:50:55;;;;;;;5.97;1.88;;;4.20;99.90;;;;;;7586162;19;20718;-76
2024/02/21 06:53:28;;;;;;;8.07;2.30;;;4.10;99.90;;;;;;7603261;19;20006;-78
2024/02/21 06:56:00;;;;;;;5.30;2.75;;;4.20;99.90;;;;;;7582881;19;21122;-78
2024/02/21 06:58:32;;;;;;;6.57;2.47;;;4.20;99.90;;;;;;7581066;19;20021;-79
2024/02/21 07:01:05;;;;;;;4.40;2.05;;;4.30;99.90;;;;;;7580236;19;20035;-77
2024/02/21 07:03:38;;;;;;;6.18;1.85;;;4.30;99.90;;;;;;7516686;19;20015;-78
2024/02/21 07:06:11;;;;;;;10.70;1.83;;;4.40;99.90;;;;;;7567467;19;20939;-76
2024/02/21 07:08:43;;;;;;;3.38;1.65;;;4.40;99.90;;;;;;7566078;19;20010;-76
2024/02/21 07:11:16;;;;;;;2.83;1.80;;;4.50;99.90;;;;;;7592390;19;20527;-75
2024/02/21 07:13:49;;;;;;;7.28;2.20;;;4.50;99.90;;;;;;7570295;19;20018;-75
2024/02/21 07:16:21;;;;;;;2.85;1.52;;;4.60;99.90;;;;;;7579283;19;20018;-77
2024/02/21 07:18:53;;;;;;;5.00;1.60;;;4.70;99.90;;;;;;7594181;19;20377;-76
2024/02/21 07:21:26;;;;;;;5.70;1.73;;;4.60;99.90;;;;;;7559925;19;21019;-76
2024/02/21 07:23:58;;;;;;;3.70;1.40;;;4.70;99.90;;;;;;7576720;19;20101;-75
2024/02/21 07:26:31;;;;;;;18.57;2.53;;;4.80;99.90;;;;;;7589948;19;20025;-75
2024/02/21 07:29:03;;;;;;;3.13;2.10;;;4.80;99.90;;;;;;7560209;19;21306;-76
2024/02/21 07:31:43;;;;;;;5.10;1.60;;;4.80;99.90;;;;;;7586930;19;20021;-76
2024/02/21 07:34:16;;;;;;;3.95;1.63;;;4.80;99.90;;;;;;7593402;19;20019;-74
2024/02/21 07:36:48;;;;;;;5.97;1.85;;;4.90;99.90;;;;;;7578469;19;20014;-77
2024/02/21 07:39:21;;;;;;;1.92;1.17;;;4.90;99.90;;;;;;7582922;19;20437;-78
2024/02/21 07:41:53;;;;;;;11.77;2.20;;;5.00;99.90;;;;;;7564420;19;20500;-76
2024/02/21 07:44:25;;;;;;;4.28;1.33;;;5.10;99.90;;;;;;7594412;19;20018;-75
2024/02/21 07:46:58;;;;;;;3.30;1.42;;;5.10;99.90;;;;;;7556482;19;20006;-78
2024/02/21 07:49:31;;;;;;;3.25;1.60;;;5.10;99.90;;;;;;7584770;19;20018;-75
2024/02/21 07:52:04;;;;;;;5.03;1.58;;;5.20;99.90;;;;;;7591928;19;20014;-75
2024/02/21 07:54:36;;;;;;;3.07;1.43;;;5.20;99.90;;;;;;7577332;19;20022;-75
2024/02/21 07:57:08;;;;;;;4.05;1.38;;;5.20;99.90;;;;;;7598475;19;20298;-76
2024/02/21 07:59:40;;;;;;;4.38;1.40;;;5.20;99.90;;;;;;7599808;19;20048;-76
2024/02/21 08:02:16;;;;;;;3.03;1.38;;;5.30;99.90;;;;;;7599867;19;20326;-75
2024/02/21 08:04:48;;;;;;;1.88;1.50;;;5.30;99.90;;;;;;7562235;19;20533;-75
2024/02/21 08:07:21;;;;;;;3.10;1.40;;;5.30;99.90;;;;;;7567361;19;20011;-76
2024/02/21 08:09:53;;;;;;;2.60;1.40;;;5.30;99.90;;;;;;7592461;19;20453;-76
2024/02/21 08:12:25;;;;;;;4.50;1.73;;;5.40;99.90;;;;;;7606033;19;20011;-76
2024/02/21 08:14:58;;;;;;;4.35;1.85;;;5.50;99.90;;;;;;7569119;19;20022;-78
2024/02/21 08:17:31;;;;;;;4.63;1.10;;;5.60;99.90;;;;;;7596194;19;20094;-77
2024/02/21 08:20:05;;;;;;;7.18;2.28;;;5.80;99.90;;;;;;7589302;19;20052;-74
2024/02/21 08:22:38;;;;;;;;;;;5.80;99.90;;;;;;7562890;19;20993;-74
2024/02/21 08:25:10;;;;;;;3.97;2.03;;;5.90;99.90;;;;;;7580870;19;19923;-74
2024/02/21 08:27:44;;;;;;;7.45;1.95;;;6.10;99.90;;;;;;7585819;19;20705;-75
2024/02/21 08:30:18;;;;;;;7.32;1.60;;;6.20;99.90;;;;;;7547464;19;20046;-74
2024/02/21 08:32:50;;;;;;;18.17;2.10;;;6.30;99.90;;;;;;7572157;19;20019;-73
2024/02/21 08:35:23;;;;;;;25.00;2.57;;;6.40;99.90;;;;;;7582097;19;20017;-74
2024/02/21 08:37:55;;;;;;;4.47;1.40;;;6.60;99.90;;;;;;7587598;19;20286;-74
2024/02/21 08:40:27;;;;;;;10.38;1.48;;;6.70;99.90;;;;;;7585110;19;20014;-74
2024/02/21 08:43:00;;;;;;;2.00;1.27;;;6.80;99.90;;;;;;7586665;19;20030;-73
2024/02/21 08:45:32;;;;;;;7.15;1.75;;;6.90;99.90;;;;;;7576334;19;20889;-73
2024/02/21 08:48:05;;;;;;;6.82;1.35;;;7.00;99.90;;;;;;7564189;19;20022;-73
2024/02/21 08:50:38;;;;;;;6.10;1.50;;;7.10;99.90;;;;;;7573146;19;20075;-73
2024/02/21 08:53:11;;;;;;;2.65;1.30;;;7.30;99.90;;;;;;7565836;19;20011;-76
2024/02/21 08:55:44;;;;;;;1.88;1.30;;;7.50;99.90;;;;;;7593649;19;20023;-75
2024/02/21 08:58:16;;;;;;;2.42;1.15;;;7.70;99.90;;;;;;7583340;19;20033;-75
2024/02/21 09:00:52;;;;;;;1.20;1.10;;;7.80;99.90;;;;;;7557270;19;20012;-75
2024/02/21 09:03:25;;;;;;;2.72;1.35;;;7.90;99.90;;;;;;7594101;19;20011;-75
2024/02/21 09:05:58;;;;;;;3.33;1.00;;;8.00;99.90;;;;;;7583442;19;20065;-75
2024/02/21 09:08:30;;;;;;;;;;;8.10;99.90;;;;;;7591320;19;20025;-75
2024/02/21 09:11:03;;;;;;;2.40;1.33;;;8.20;99.90;;;;;;7594369;19;19919;-75
2024/02/21 09:13:36;;;;;;;4.00;1.50;;;8.20;99.90;;;;;;7599364;19;20872;-75
2024/02/21 09:16:09;;;;;;;3.00;1.20;;;8.20;99.90;;;;;;7581739;19;20015;-75
2024/02/21 09:18:42;;;;;;;2.65;1.13;;;8.20;99.90;;;;;;7591390;19;20488;-76
2024/02/21 09:21:14;;;;;;;2.35;0.93;;;8.20;99.50;;;;;;7594998;19;20019;-76
2024/02/21 09:23:47;;;;;;;2.90;1.00;;;8.30;99.90;;;;;;7563315;19;20519;-75
2024/02/21 09:26:19;;;;;;;4.47;1.17;;;8.40;99.90;;;;;;7602155;19;20504;-75
2024/02/21 09:28:52;;;;;;;3.30;0.87;;;8.50;99.00;;;;;;7582973;19;20052;-75
2024/02/21 09:31:24;;;;;;;3.90;0.88;;;8.50;99.40;;;;;;7554835;19;20405;-75
2024/02/21 09:33:57;;;;;;;2.15;0.82;;;8.60;98.60;;;;;;7574408;19;20407;-74
2024/02/21 09:36:30;;;;;;;1.47;0.90;;;8.70;98.60;;;;;;7582320;19;20020;-76
2024/02/21 09:39:02;;;;;;;2.13;1.00;;;8.70;98.70;;;;;;7577915;19;20047;-74
2024/02/21 09:41:39;;;;;;;2.22;0.95;;;8.90;97.70;;;;;;7560775;19;20014;-76
2024/02/21 09:44:14;;;;;;;1.67;0.98;;;8.90;96.80;;;;;;7565919;19;20029;-77
2024/02/21 09:46:47;;;;;;;1.75;0.95;;;9.00;97.20;;;;;;7582163;19;20800;-76
2024/02/21 09:49:33;;;;;;;1.33;0.80;;;9.10;95.30;;;;;;7586679;19;20018;-76
2024/02/21 09:52:06;;;;;;;1.83;0.98;;;9.20;94.40;;;;;;7579883;19;20014;-75
2024/02/21 09:54:41;;;;;;;1.52;0.82;;;9.20;93.90;;;;;;7581683;19;20021;-76
2024/02/21 09:57:15;;;;;;;3.97;0.60;;;9.30;94.30;;;;;;7592831;19;20110;-75
2024/02/21 09:59:47;;;;;;;1.40;1.00;;;9.30;94.20;;;;;;7579413;19;20022;-75
2024/02/21 10:02:20;;;;;;;1.83;0.55;;;9.50;93.50;;;;;;7604140;19;20028;-76
2024/02/21 10:04:52;;;;;;;1.73;1.00;;;9.60;93.20;;;;;;7600255;19;20022;-75
2024/02/21 10:07:25;;;;;;;2.38;0.73;;;9.70;93.00;;;;;;7605662;19;20060;-76
2024/02/21 10:10:02;;;;;;;1.83;0.70;;;9.80;92.70;;;;;;7552111;19;20018;-74
2024/02/21 10:12:35;;;;;;;2.58;0.82;;;9.90;92.30;;;;;;7597697;19;20452;-74
2024/02/21 10:15:09;;;;;;;2.72;0.70;;;10.00;92.00;;;;;;7598435;19;20015;-76
2024/02/21 10:17:41;;;;;;;3.42;0.80;;;10.30;91.50;;;;;;7579552;19;20481;-75
2024/02/21 10:20:15;;;;;;;1.80;0.70;;;10.50;89.50;;;;;;7586765;19;20056;-75
2024/02/21 10:22:47;;;;;;;1.00;0.60;;;10.50;90.80;;;;;;7585880;19;20403;-76
2024/02/21 10:25:20;;;;;;;1.27;0.70;;;10.50;89.60;;;;;;7554533;19;20194;-77
2024/02/21 10:27:53;;;;;;;2.58;1.00;;;10.40;88.90;;;;;;7554572;19;20089;-77
2024/02/21 10:30:25;;;;;;;1.67;0.70;;;10.40;86.90;;;;;;7596009;19;20019;-76
2024/02/21 10:32:58;;;;;;;2.22;0.60;;;10.50;85.90;;;;;;7579323;19;20022;-76
2024/02/21 10:35:32;;;;;;;1.67;0.85;;;10.40;86.40;;;;;;7584650;19;20014;-76
2024/02/21 10:38:04;;;;;;;1.08;0.63;;;10.40;88.70;;;;;;7585248;19;20029;-77
2024/02/21 10:40:37;;;;;;;1.63;0.50;;;10.60;86.80;;;;;;7593788;19;20022;-77
2024/02/21 10:43:13;;;;;;;1.53;0.60;;;10.80;86.10;;;;;;7567707;19;20010;-75
2024/02/21 10:45:48;;;;;;;0.85;0.65;;;10.90;84.80;;;;;;7585208;19;20287;-76
2024/02/21 10:48:29;;;;;;;2.33;0.80;;;10.90;85.80;;;;;;7604397;19;20018;-74
2024/02/21 10:51:16;;;;;;;0.60;0.50;;;11.20;88.80;;;;;;7595881;19;20029;-78
2024/02/21 10:54:07;;;;;;;1.85;0.50;;;11.30;84.10;;;;;;7591104;19;20029;-75
2024/02/21 10:56:41;;;;;;;3.28;0.70;;;11.40;81.20;;;;;;7564113;19;20018;-77
2024/02/21 10:59:14;;;;;;;1.77;0.60;;;11.40;79.90;;;;;;7558378;19;20646;-77
2024/02/21 11:01:47;;;;;;;1.10;0.70;;;11.50;77.70;;;;;;7584546;19;20025;-73
2024/02/21 11:04:21;;;;;;;;;;;11.50;77.40;;;;;;7586072;19;20006;-74
2024/02/21 11:06:54;;;;;;;2.78;0.90;;;11.60;76.60;;;;;;7596135;19;19929;-74
2024/02/21 11:09:33;;;;;;;2.85;0.70;;;11.80;75.10;;;;;;7596995;19;20617;-73
2024/02/21 11:12:07;;;;;;;1.65;0.70;;;11.90;75.60;;;;;;7578966;19;20360;-73
2024/02/21 11:14:41;;;;;;;1.67;0.70;;;12.00;74.60;;;;;;7580447;19;20050;-77
2024/02/21 11:17:18;;;;;;;0.55;0.50;;;12.00;70.60;;;;;;7599878;19;20038;-75
2024/02/21 11:19:50;;;;;;;1.77;0.63;;;12.00;72.10;;;;;;7572485;19;20359;-76
2024/02/21 11:22:24;;;;;;;0.50;0.50;;;12.20;73.20;;;;;;7546377;19;20010;-76
2024/02/21 11:25:09;;;;;;;2.05;0.52;;;12.40;68.20;;;;;;7585611;19;20646;-77
2024/02/21 11:27:47;;;;;;;2.50;0.55;;;12.60;71.60;;;;;;7586701;19;20018;-76
2024/02/21 11:30:27;;;;;;;0.80;0.68;;;12.70;66.00;;;;;;7591928;19;20022;-76
2024/02/21 11:33:03;;;;;;;1.92;0.57;;;12.90;64.60;;;;;;7595188;19;20089;-77
2024/02/21 11:35:36;;;;;;;0.38;0.35;;;13.10;65.50;;;;;;7571313;19;20123;-76
2024/02/21 11:38:16;;;;;;;0.52;0.40;;;13.40;61.30;;;;;;7576849;19;20083;-76
2024/02/21 11:40:49;;;;;;;0.90;0.40;;;13.90;60.80;;;;;;7579397;19;20143;-76
2024/02/21 11:43:21;;;;;;;1.25;0.52;;;14.30;60.10;;;;;;7586117;19;20014;-76
2024/02/21 11:46:03;;;;;;;0.52;0.43;;;14.50;61.30;;;;;;7585531;19;20025;-75
2024/02/21 11:48:36;;;;;;;0.80;0.50;;;14.60;58.20;;;;;;7584840;19;20093;-75
2024/02/21 11:51:08;;;;;;;0.83;0.40;;;15.00;58.40;;;;;;7536981;19;20873;-75
2024/02/21 11:53:40;;;;;;;0.73;0.57;;;15.50;55.10;;;;;;7582457;19;20022;-75
2024/02/21 11:56:28;;;;;;;0.65;0.50;;;15.70;55.30;;;;;;7587425;19;20082;-76
2024/02/21 11:59:00;;;;;;;0.90;0.30;;;15.70;55.60;;;;;;7592730;19;20018;-75
2024/02/21 12:01:34;;;;;;;0.90;0.60;;;15.60;53.60;;;;;;7590729;19;20006;-74
2024/02/21 12:04:06;;;;;;;0.40;0.40;;;16.00;54.00;;;;;;7586775;19;20018;-74
2024/02/21 12:06:42;;;;;;;0.85;0.40;;;16.30;53.80;;;;;;7591580;19;20038;-75
2024/02/21 12:09:17;;;;;;;0.65;0.40;;;16.20;51.60;;;;;;7591074;19;20014;-75
2024/02/21 12:12:04;;;;;;;0.77;0.50;;;15.80;52.50;;;;;;7561465;19;20909;-75
2024/02/21 12:14:38;;;;;;;1.25;0.40;;;16.10;53.20;;;;;;7552647;19;20651;-75
2024/02/21 12:17:10;;;;;;;0.38;0.30;;;15.30;52.20;;;;;;7575459;19;20021;-75
2024/02/21 12:19:43;;;;;;;1.10;0.60;;;15.00;53.90;;;;;;7575401;19;20499;-77
2024/02/21 12:22:19;;;;;;;1.45;0.40;;;14.60;54.30;;;;;;7542095;19;20085;-74
2024/02/21 12:24:52;;;;;;;3.05;0.50;;;14.30;52.80;;;;;;7565747;19;20014;-75
2024/02/21 12:27:25;;;;;;;1.17;0.45;;;14.50;55.60;;;;;;7573860;19;20011;-75
2024/02/21 12:29:57;;;;;;;0.73;0.50;;;15.00;54.10;;;;;;7571380;19;20018;-74
2024/02/21 12:32:30;;;;;;;0.65;0.52;;;14.80;53.00;;;;;;7557190;19;20013;-75
2024/02/21 12:35:03;;;;;;;1.40;0.40;;;14.50;55.40;;;;;;7558990;19;20329;-75
2024/02/21 12:37:37;;;;;;;1.10;0.60;;;14.30;54.30;;;;;;7578462;19;20042;-75
2024/02/21 12:40:13;;;;;;;2.28;0.35;;;14.20;54.00;;;;;;7589973;19;20048;-74
2024/02/21 12:42:47;;;;;;;1.15;0.60;;;14.10;54.50;;;;;;7593408;19;20097;-74
2024/02/21 12:45:20;;;;;;;0.73;0.50;;;14.30;55.70;;;;;;7604004;19;20041;-74
2024/02/21 12:47:52;;;;;;;0.57;0.40;;;14.40;54.20;;;;;;7588191;19;20010;-74
2024/02/21 12:50:25;;;;;;;2.47;0.80;;;14.50;52.90;;;;;;7589354;19;20483;-74
2024/02/21 12:52:58;;;;;;;3.55;0.60;;;14.40;53.60;;;;;;7543889;19;20051;-74
2024/02/21 12:55:30;;;;;;;0.57;0.43;;;14.40;53.30;;;;;;7599259;19;20021;-76
2024/02/21 12:58:07;;;;;;;2.70;0.45;;;14.40;52.60;;;;;;7591634;19;20767;-77
2024/02/21 13:00:39;;;;;;;0.43;0.30;;;14.50;53.90;;;;;;7590307;19;20017;-76
2024/02/21 13:03:12;;;;;;;1.70;0.63;;;14.60;53.10;;;;;;7585519;19;20649;-76
2024/02/21 13:05:44;;;;;;;1.10;0.60;;;14.60;52.80;;;;;;7582596;19;20043;-74
2024/02/21 13:08:17;;;;;;;2.67;0.60;;;14.50;53.50;;;;;;7590863;19;20014;-76
2024/02/21 13:10:49;;;;;;;0.95;0.55;;;14.70;54.00;;;;;;7578494;19;22722;-78
2024/02/21 13:43:52;;;;;;;1.55;0.60;;;14.70;51.80;;;;;;7477132;19;20101;-73
2024/02/21 13:46:27;;;;;;;1.00;0.40;;;14.60;53.00;;;;;;7546532;19;20300;-74
2024/02/21 13:49:07;;;;;;;0.47;0.45;;;14.70;53.30;;;;;;7576009;19;20022;-72
2024/02/21 13:51:42;;;;;;;0.63;0.47;;;14.80;52.80;;;;;;7586958;19;20017;-74
2024/02/21 13:54:19;;;;;;;1.63;0.65;;;14.80;51.90;;;;;;7590250;19;20010;-75
2024/02/21 13:56:51;;;;;;;0.95;0.47;;;14.70;52.50;;;;;;7600293;19;20043;-75